sensor_id;sensor_type;location;lat;lon;timestamp;pressure;altitude;pressure_sealevel;temperature;humidity
59971;BME280;45825;45.434;9.116;2023-08-21T00:01:01;100716.91;;;30.03;53.97
59971;BME280;45825;45.434;9.116;2023-08-21T00:03:27;100712.09;;;29.98;53.83
59971;BME280;45825;45.434;9.116;2023-08-21T00:05:52;100710.44;;;29.97;54.16
59971;BME280;45825;45.434;9.116;2023-08-21T00:08:17;100712.97;;;29.99;54.05
59971;BME280;45825;45.434;9.116;2023-08-21T00:10:43;100711.69;;;30.02;54.24
59971;BME280;45825;45.434;9.116;2023-08-21T00:13:08;100715.75;;;30.26;53.18
59971;BME280;45825;45.434;9.116;2023-08-21T00:15:33;100719.50;;;30.25;53.07
59971;BME280;45825;45.434;9.116;2023-08-21T00:17:59;100722.66;;;30.22;53.24
59971;BME280;45825;45.434;9.116;2023-08-21T00:20:26;100708.97;;;29.95;54.04
59971;BME280;45825;45.434;9.116;2023-08-21T00:22:51;100714.59;;;29.87;54.42
59971;BME280;45825;45.434;9.116;2023-08-21T00:25:17;100717.13;;;30.02;54.25
59971;BME280;45825;45.434;9.116;2023-08-21T00:27:42;100722.34;;;30.03;54.00
59971;BME280;45825;45.434;9.116;2023-08-21T00:30:08;100716.78;;;30.18;53.76
59971;BME280;45825;45.434;9.116;2023-08-21T00:32:33;100719.72;;;30.23;53.45
59971;BME280;45825;45.434;9.116;2023-08-21T00:34:58;100721.38;;;30.18;53.57
59971;BME280;45825;45.434;9.116;2023-08-21T00:37:24;100713.53;;;29.81;54.75
59971;BME280;45825;45.434;9.116;2023-08-21T00:39:49;100719.94;;;29.80;55.00
59971;BME280;45825;45.434;9.116;2023-08-21T00:42:14;100720.53;;;29.68;55.08
59971;BME280;45825;45.434;9.116;2023-08-21T00:44:40;100713.44;;;29.67;55.49
59971;BME280;45825;45.434;9.116;2023-08-21T00:47:05;100711.47;;;29.90;54.92
59971;BME280;45825;45.434;9.116;2023-08-21T00:49:31;100723.81;;;29.99;54.47
59971;BME280;45825;45.434;9.116;2023-08-21T00:51:56;100720.47;;;29.97;54.26
59971;BME280;45825;45.434;9.116;2023-08-21T00:54:22;100724.53;;;29.73;55.34
59971;BME280;45825;45.434;9.116;2023-08-21T00:56:47;100720.91;;;29.59;55.77
59971;BME280;45825;45.434;9.116;2023-08-21T00:59:13;100713.53;;;29.46;55.77
59971;BME280;45825;45.434;9.116;2023-08-21T01:01:38;100720.28;;;29.57;55.95
59971;BME280;45825;45.434;9.116;2023-08-21T01:04:05;100718.69;;;29.76;55.78
59971;BME280;45825;45.434;9.116;2023-08-21T01:06:30;100717.06;;;29.81;55.36
59971;BME280;45825;45.434;9.116;2023-08-21T01:09:04;100720.94;;;29.65;56.25
59971;BME280;45825;45.434;9.116;2023-08-21T01:11:48;100719.53;;;29.76;55.87
59971;BME280;45825;45.434;9.116;2023-08-21T01:14:29;100720.75;;;29.67;56.23
59971;BME280;45825;45.434;9.116;2023-08-21T01:16:59;100726.16;;;29.67;56.54
59971;BME280;45825;45.434;9.116;2023-08-21T01:19:37;100728.75;;;29.82;55.88
59971;BME280;45825;45.434;9.116;2023-08-21T01:22:03;100730.41;;;29.83;55.89
59971;BME280;45825;45.434;9.116;2023-08-21T01:24:28;100732.91;;;29.84;56.02
59971;BME280;45825;45.434;9.116;2023-08-21T01:26:54;100730.31;;;29.69;56.65
59971;BME280;45825;45.434;9.116;2023-08-21T01:29:19;100724.28;;;29.67;56.84
59971;BME280;45825;45.434;9.116;2023-08-21T01:31:50;100727.41;;;29.64;56.82
59971;BME280;45825;45.434;9.116;2023-08-21T01:34:16;100724.47;;;29.59;56.91
59971;BME280;45825;45.434;9.116;2023-08-21T01:36:42;100727.72;;;29.48;57.47
59971;BME280;45825;45.434;9.116;2023-08-21T01:39:08;100726.59;;;29.42;57.91
59971;BME280;45825;45.434;9.116;2023-08-21T01:41:37;100731.31;;;29.55;57.41
59971;BME280;45825;45.434;9.116;2023-08-21T01:44:02;100724.25;;;29.61;57.31
59971;BME280;45825;45.434;9.116;2023-08-21T01:46:27;100727.81;;;29.61;57.37
59971;BME280;45825;45.434;9.116;2023-08-21T01:48:53;100729.06;;;29.65;57.19
59971;BME280;45825;45.434;9.116;2023-08-21T01:51:18;100723.63;;;29.30;58.34
59971;BME280;45825;45.434;9.116;2023-08-21T01:53:43;100738.31;;;29.14;58.99
59971;BME280;45825;45.434;9.116;2023-08-21T01:56:09;100730.34;;;29.06;59.17
59971;BME280;45825;45.434;9.116;2023-08-21T01:58:34;100725.94;;;29.05;59.32
59971;BME280;45825;45.434;9.116;2023-08-21T02:00:59;100718.19;;;29.23;58.89
59971;BME280;45825;45.434;9.116;2023-08-21T02:03:25;100727.41;;;29.36;58.60
59971;BME280;45825;45.434;9.116;2023-08-21T02:05:50;100725.78;;;29.41;58.12
59971;BME280;45825;45.434;9.116;2023-08-21T02:08:17;100722.59;;;29.31;58.60
59971;BME280;45825;45.434;9.116;2023-08-21T02:10:52;100727.47;;;29.14;58.99
59971;BME280;45825;45.434;9.116;2023-08-21T02:13:18;100727.75;;;28.97;59.84
59971;BME280;45825;45.434;9.116;2023-08-21T02:15:43;100731.28;;;28.91;60.02
59971;BME280;45825;45.434;9.116;2023-08-21T02:18:09;100733.00;;;28.99;59.79
59971;BME280;45825;45.434;9.116;2023-08-21T02:20:34;100729.56;;;29.12;59.31
59971;BME280;45825;45.434;9.116;2023-08-21T02:22:59;100725.84;;;29.20;58.99
59971;BME280;45825;45.434;9.116;2023-08-21T02:25:25;100720.66;;;29.25;58.83
59971;BME280;45825;45.434;9.116;2023-08-21T02:27:50;100729.38;;;29.20;59.00
59971;BME280;45825;45.434;9.116;2023-08-21T02:30:16;100732.94;;;28.92;60.28
59971;BME280;45825;45.434;9.116;2023-08-21T02:32:42;100728.50;;;28.84;60.41
59971;BME280;45825;45.434;9.116;2023-08-21T02:35:08;100733.56;;;28.94;60.23
59971;BME280;45825;45.434;9.116;2023-08-21T02:37:33;100727.38;;;29.00;60.12
59971;BME280;45825;45.434;9.116;2023-08-21T02:39:59;100730.38;;;29.12;59.56
59971;BME280;45825;45.434;9.116;2023-08-21T02:42:25;100725.00;;;29.19;59.32
59971;BME280;45825;45.434;9.116;2023-08-21T02:44:50;100720.25;;;29.21;59.15
59971;BME280;45825;45.434;9.116;2023-08-21T02:47:15;100720.66;;;29.25;58.91
59971;BME280;45825;45.434;9.116;2023-08-21T02:49:41;100725.31;;;29.03;59.85
59971;BME280;45825;45.434;9.116;2023-08-21T02:52:06;100727.97;;;28.96;59.88
59971;BME280;45825;45.434;9.116;2023-08-21T02:54:32;100729.66;;;28.75;60.79
59971;BME280;45825;45.434;9.116;2023-08-21T02:59:32;100725.13;;;28.82;60.79
59971;BME280;45825;45.434;9.116;2023-08-21T03:01:57;100732.53;;;28.95;60.37
59971;BME280;45825;45.434;9.116;2023-08-21T03:04:23;100729.44;;;28.98;60.52
59971;BME280;45825;45.434;9.116;2023-08-21T03:06:48;100728.47;;;29.06;59.98
59971;BME280;45825;45.434;9.116;2023-08-21T03:09:14;100722.16;;;28.77;60.74
59971;BME280;45825;45.434;9.116;2023-08-21T03:11:39;100722.81;;;28.57;61.77
59971;BME280;45825;45.434;9.116;2023-08-21T03:14:04;100720.63;;;28.46;62.05
59971;BME280;45825;45.434;9.116;2023-08-21T03:16:30;100722.88;;;28.42;62.35
59971;BME280;45825;45.434;9.116;2023-08-21T03:18:59;100716.63;;;28.64;61.77
59971;BME280;45825;45.434;9.116;2023-08-21T03:21:25;100710.69;;;28.75;61.33
59971;BME280;45825;45.434;9.116;2023-08-21T03:23:56;100712.28;;;28.84;61.04
59971;BME280;45825;45.434;9.116;2023-08-21T03:26:23;100713.34;;;28.90;60.74
59971;BME280;45825;45.434;9.116;2023-08-21T03:28:48;100698.06;;;28.61;61.53
59971;BME280;45825;45.434;9.116;2023-08-21T03:31:14;100705.81;;;28.64;61.86
59971;BME280;45825;45.434;9.116;2023-08-21T03:33:39;100709.84;;;28.53;62.21
59971;BME280;45825;45.434;9.116;2023-08-21T03:36:05;100712.03;;;28.42;62.80
59971;BME280;45825;45.434;9.116;2023-08-21T03:38:30;100712.25;;;28.63;62.22
59971;BME280;45825;45.434;9.116;2023-08-21T03:40:55;100717.16;;;28.74;61.82
59971;BME280;45825;45.434;9.116;2023-08-21T03:43:20;100718.91;;;28.82;61.60
59971;BME280;45825;45.434;9.116;2023-08-21T03:45:46;100710.19;;;28.86;61.49
59971;BME280;45825;45.434;9.116;2023-08-21T03:48:11;100712.31;;;28.91;61.46
59971;BME280;45825;45.434;9.116;2023-08-21T03:50:38;100721.13;;;28.78;62.73
59971;BME280;45825;45.434;9.116;2023-08-21T03:53:03;100722.94;;;28.49;64.00
59971;BME280;45825;45.434;9.116;2023-08-21T03:55:28;100721.31;;;28.33;64.86
59971;BME280;45825;45.434;9.116;2023-08-21T03:57:54;100733.69;;;28.42;64.42
59971;BME280;45825;45.434;9.116;2023-08-21T04:00:19;100725.50;;;28.57;63.73
59971;BME280;45825;45.434;9.116;2023-08-21T04:02:44;100729.78;;;28.67;63.59
59971;BME280;45825;45.434;9.116;2023-08-21T04:05:10;100728.91;;;28.66;63.24
59971;BME280;45825;45.434;9.116;2023-08-21T04:07:36;100729.78;;;28.67;63.27
59971;BME280;45825;45.434;9.116;2023-08-21T04:10:02;100734.16;;;28.46;64.52
59971;BME280;45825;45.434;9.116;2023-08-21T04:12:27;100736.97;;;28.38;64.67
59971;BME280;45825;45.434;9.116;2023-08-21T04:14:53;100737.94;;;28.15;65.57
59971;BME280;45825;45.434;9.116;2023-08-21T04:17:22;100736.56;;;28.04;65.92
59971;BME280;45825;45.434;9.116;2023-08-21T04:19:47;100742.72;;;28.13;65.81
59971;BME280;45825;45.434;9.116;2023-08-21T04:22:12;100739.59;;;28.31;65.25
59971;BME280;45825;45.434;9.116;2023-08-21T04:24:38;100740.97;;;28.42;64.74
59971;BME280;45825;45.434;9.116;2023-08-21T04:27:04;100744.41;;;28.51;64.50
59971;BME280;45825;45.434;9.116;2023-08-21T04:29:30;100733.19;;;28.54;64.48
59971;BME280;45825;45.434;9.116;2023-08-21T04:31:55;100742.78;;;28.56;64.69
59971;BME280;45825;45.434;9.116;2023-08-21T04:34:20;100743.09;;;28.10;66.65
59971;BME280;45825;45.434;9.116;2023-08-21T04:36:46;100743.69;;;27.90;67.20
59971;BME280;45825;45.434;9.116;2023-08-21T04:39:12;100742.56;;;27.84;68.04
59971;BME280;45825;45.434;9.116;2023-08-21T04:41:39;100744.63;;;27.97;67.66
59971;BME280;45825;45.434;9.116;2023-08-21T04:44:04;100743.03;;;28.18;66.41
59971;BME280;45825;45.434;9.116;2023-08-21T04:46:30;100751.28;;;28.32;65.70
59971;BME280;45825;45.434;9.116;2023-08-21T04:48:55;100750.50;;;28.38;65.76
59971;BME280;45825;45.434;9.116;2023-08-21T04:51:20;100753.03;;;28.39;65.85
59971;BME280;45825;45.434;9.116;2023-08-21T04:53:46;100761.19;;;28.46;65.73
59971;BME280;45825;45.434;9.116;2023-08-21T04:56:11;100758.22;;;28.19;66.94
59971;BME280;45825;45.434;9.116;2023-08-21T04:58:36;100754.88;;;28.02;68.04
59971;BME280;45825;45.434;9.116;2023-08-21T05:01:02;100759.50;;;27.93;68.58
59971;BME280;45825;45.434;9.116;2023-08-21T05:03:29;100760.06;;;27.88;68.84
59971;BME280;45825;45.434;9.116;2023-08-21T05:05:55;100764.91;;;28.08;68.24
59971;BME280;45825;45.434;9.116;2023-08-21T05:08:24;100767.16;;;28.20;67.55
59971;BME280;45825;45.434;9.116;2023-08-21T05:11:00;100766.94;;;28.36;64.90
59971;BME280;45825;45.434;9.116;2023-08-21T05:13:26;100772.41;;;28.43;65.54
59971;BME280;45825;45.434;9.116;2023-08-21T05:15:55;100772.31;;;28.51;65.84
59971;BME280;45825;45.434;9.116;2023-08-21T05:18:22;100769.22;;;28.54;62.46
59971;BME280;45825;45.434;9.116;2023-08-21T05:20:49;100774.75;;;28.68;63.85
59971;BME280;45825;45.434;9.116;2023-08-21T05:23:14;100764.56;;;28.70;62.24
59971;BME280;45825;45.434;9.116;2023-08-21T05:25:40;100771.53;;;28.79;64.29
59971;BME280;45825;45.434;9.116;2023-08-21T05:28:06;100764.94;;;28.82;62.67
59971;BME280;45825;45.434;9.116;2023-08-21T05:30:32;100770.22;;;28.90;64.55
59971;BME280;45825;45.434;9.116;2023-08-21T05:32:57;100776.66;;;28.89;64.31
59971;BME280;45825;45.434;9.116;2023-08-21T05:35:22;100777.94;;;28.93;64.22
59971;BME280;45825;45.434;9.116;2023-08-21T05:37:48;100771.88;;;28.91;64.30
59971;BME280;45825;45.434;9.116;2023-08-21T05:40:13;100779.88;;;28.99;64.36
59971;BME280;45825;45.434;9.116;2023-08-21T05:42:39;100781.59;;;29.07;64.13
59971;BME280;45825;45.434;9.116;2023-08-21T05:45:05;100779.13;;;29.12;64.06
59971;BME280;45825;45.434;9.116;2023-08-21T05:47:30;100785.19;;;29.14;63.82
59971;BME280;45825;45.434;9.116;2023-08-21T05:49:56;100781.47;;;29.16;63.07
59971;BME280;45825;45.434;9.116;2023-08-21T05:52:21;100787.56;;;29.24;63.12
59971;BME280;45825;45.434;9.116;2023-08-21T05:54:48;100781.13;;;29.25;63.18
59971;BME280;45825;45.434;9.116;2023-08-21T05:57:13;100793.03;;;29.31;63.11
59971;BME280;45825;45.434;9.116;2023-08-21T05:59:43;100795.94;;;29.30;63.45
59971;BME280;45825;45.434;9.116;2023-08-21T06:02:09;100789.88;;;29.27;63.30
59971;BME280;45825;45.434;9.116;2023-08-21T06:04:35;100793.44;;;29.28;63.51
59971;BME280;45825;45.434;9.116;2023-08-21T06:07:00;100796.38;;;29.33;63.33
59971;BME280;45825;45.434;9.116;2023-08-21T06:09:25;100796.97;;;29.28;63.73
59971;BME280;45825;45.434;9.116;2023-08-21T06:11:51;100790.31;;;29.31;63.54
59971;BME280;45825;45.434;9.116;2023-08-21T06:14:16;100795.56;;;29.33;63.45
59971;BME280;45825;45.434;9.116;2023-08-21T06:16:41;100792.78;;;29.26;63.78
59971;BME280;45825;45.434;9.116;2023-08-21T06:19:08;100800.06;;;29.25;64.06
59971;BME280;45825;45.434;9.116;2023-08-21T06:21:34;100800.72;;;29.27;63.76
59971;BME280;45825;45.434;9.116;2023-08-21T06:23:59;100800.56;;;29.36;63.55
59971;BME280;45825;45.434;9.116;2023-08-21T06:26:24;100797.53;;;29.46;63.26
59971;BME280;45825;45.434;9.116;2023-08-21T06:28:51;100795.47;;;29.48;62.80
59971;BME280;45825;45.434;9.116;2023-08-21T06:31:16;100800.53;;;29.58;63.07
59971;BME280;45825;45.434;9.116;2023-08-21T06:33:42;100792.31;;;29.73;62.85
59971;BME280;45825;45.434;9.116;2023-08-21T06:36:07;100795.88;;;29.80;64.17
59971;BME280;45825;45.434;9.116;2023-08-21T06:38:32;100793.41;;;29.85;63.64
59971;BME280;45825;45.434;9.116;2023-08-21T06:40:57;100796.78;;;29.94;62.43
59971;BME280;45825;45.434;9.116;2023-08-21T06:43:23;100790.31;;;29.95;61.63
59971;BME280;45825;45.434;9.116;2023-08-21T06:45:48;100788.34;;;30.10;61.97
59971;BME280;45825;45.434;9.116;2023-08-21T06:48:13;100787.50;;;30.17;60.83
59971;BME280;45825;45.434;9.116;2023-08-21T06:50:39;100787.50;;;30.17;59.82
59971;BME280;45825;45.434;9.116;2023-08-21T06:53:04;100793.97;;;30.16;59.38
59971;BME280;45825;45.434;9.116;2023-08-21T06:55:29;100786.28;;;30.19;59.75
59971;BME280;45825;45.434;9.116;2023-08-21T06:57:54;100794.84;;;30.23;59.93
59971;BME280;45825;45.434;9.116;2023-08-21T07:00:20;100791.72;;;30.26;59.94
59971;BME280;45825;45.434;9.116;2023-08-21T07:02:45;100793.63;;;30.32;59.77
59971;BME280;45825;45.434;9.116;2023-08-21T07:05:10;100790.50;;;30.35;59.60
59971;BME280;45825;45.434;9.116;2023-08-21T07:07:36;100799.28;;;30.44;59.19
59971;BME280;45825;45.434;9.116;2023-08-21T07:10:01;100799.75;;;30.55;58.36
59971;BME280;45825;45.434;9.116;2023-08-21T07:12:28;100793.69;;;30.59;57.43
59971;BME280;45825;45.434;9.116;2023-08-21T07:14:53;100793.31;;;30.62;54.39
59971;BME280;45825;45.434;9.116;2023-08-21T07:17:18;100795.66;;;30.79;54.76
59971;BME280;45825;45.434;9.116;2023-08-21T07:19:44;100797.88;;;30.62;55.28
59971;BME280;45825;45.434;9.116;2023-08-21T07:22:09;100801.06;;;30.72;55.42
59971;BME280;45825;45.434;9.116;2023-08-21T07:24:34;100801.50;;;30.76;53.86
59971;BME280;45825;45.434;9.116;2023-08-21T07:27:00;100800.47;;;30.90;52.95
59971;BME280;45825;45.434;9.116;2023-08-21T07:29:25;100804.22;;;30.83;54.14
59971;BME280;45825;45.434;9.116;2023-08-21T07:31:50;100801.31;;;30.98;51.72
59971;BME280;45825;45.434;9.116;2023-08-21T07:34:16;100799.66;;;30.97;52.52
59971;BME280;45825;45.434;9.116;2023-08-21T07:36:41;100802.97;;;31.05;52.86
59971;BME280;45825;45.434;9.116;2023-08-21T07:39:06;100800.88;;;31.07;53.50
59971;BME280;45825;45.434;9.116;2023-08-21T07:41:32;100794.81;;;31.19;54.01
59971;BME280;45825;45.434;9.116;2023-08-21T07:43:57;100801.94;;;31.20;53.62
59971;BME280;45825;45.434;9.116;2023-08-21T07:46:22;100802.38;;;31.30;52.93
59971;BME280;45825;45.434;9.116;2023-08-21T07:48:49;100795.88;;;31.18;54.30
59971;BME280;45825;45.434;9.116;2023-08-21T07:51:15;100801.09;;;31.13;54.41
59971;BME280;45825;45.434;9.116;2023-08-21T07:53:40;100805.06;;;31.17;54.24
59971;BME280;45825;45.434;9.116;2023-08-21T07:56:05;100799.22;;;31.06;55.16
59971;BME280;45825;45.434;9.116;2023-08-21T07:58:31;100799.84;;;31.08;55.27
59971;BME280;45825;45.434;9.116;2023-08-21T08:00:56;100802.78;;;31.20;55.61
59971;BME280;45825;45.434;9.116;2023-08-21T08:03:22;100798.22;;;31.28;55.79
59971;BME280;45825;45.434;9.116;2023-08-21T08:05:47;100800.88;;;31.21;55.64
59971;BME280;45825;45.434;9.116;2023-08-21T08:08:12;100804.91;;;31.25;56.27
59971;BME280;45825;45.434;9.116;2023-08-21T08:10:38;100803.41;;;31.29;56.65
59971;BME280;45825;45.434;9.116;2023-08-21T08:13:04;100807.34;;;31.20;56.38
59971;BME280;45825;45.434;9.116;2023-08-21T08:15:30;100815.31;;;31.21;56.40
59971;BME280;45825;45.434;9.116;2023-08-21T08:17:57;100806.75;;;31.31;56.65
59971;BME280;45825;45.434;9.116;2023-08-21T08:20:23;100805.28;;;31.49;55.91
59971;BME280;45825;45.434;9.116;2023-08-21T08:22:48;100800.69;;;31.56;54.74
59971;BME280;45825;45.434;9.116;2023-08-21T08:25:13;100793.97;;;31.59;54.09
59971;BME280;45825;45.434;9.116;2023-08-21T08:27:40;100796.94;;;31.50;54.26
59971;BME280;45825;45.434;9.116;2023-08-21T08:30:06;100792.94;;;31.53;53.98
59971;BME280;45825;45.434;9.116;2023-08-21T08:32:31;100796.53;;;31.33;54.54
59971;BME280;45825;45.434;9.116;2023-08-21T08:34:56;100792.13;;;31.46;54.91
59971;BME280;45825;45.434;9.116;2023-08-21T08:37:22;100793.97;;;31.52;53.82
59971;BME280;45825;45.434;9.116;2023-08-21T08:39:48;100790.22;;;31.53;53.20
59971;BME280;45825;45.434;9.116;2023-08-21T08:42:15;100794.00;;;31.45;53.48
59971;BME280;45825;45.434;9.116;2023-08-21T08:44:42;100791.88;;;31.61;53.51
59971;BME280;45825;45.434;9.116;2023-08-21T08:47:09;100794.97;;;31.78;53.73
59971;BME280;45825;45.434;9.116;2023-08-21T08:49:35;100790.59;;;31.77;52.11
59971;BME280;45825;45.434;9.116;2023-08-21T08:52:00;100797.09;;;31.83;52.34
59971;BME280;45825;45.434;9.116;2023-08-21T08:54:26;100788.03;;;31.96;52.11
59971;BME280;45825;45.434;9.116;2023-08-21T08:56:53;100791.41;;;31.98;51.88
59971;BME280;45825;45.434;9.116;2023-08-21T08:59:18;100782.31;;;32.11;51.25
59971;BME280;45825;45.434;9.116;2023-08-21T09:01:44;100782.31;;;32.11;50.33
59971;BME280;45825;45.434;9.116;2023-08-21T09:04:09;100781.59;;;32.29;50.53
59971;BME280;45825;45.434;9.116;2023-08-21T09:06:35;100776.53;;;32.46;49.98
59971;BME280;45825;45.434;9.116;2023-08-21T09:09:01;100779.03;;;32.47;48.90
59971;BME280;45825;45.434;9.116;2023-08-21T09:11:28;100779.78;;;32.61;48.60
59971;BME280;45825;45.434;9.116;2023-08-21T09:13:55;100779.97;;;32.60;48.64
59971;BME280;45825;45.434;9.116;2023-08-21T09:16:21;100774.72;;;32.65;48.15
59971;BME280;45825;45.434;9.116;2023-08-21T09:18:51;100768.31;;;32.78;48.20
59971;BME280;45825;45.434;9.116;2023-08-21T09:21:18;100771.09;;;32.71;47.71
59971;BME280;45825;45.434;9.116;2023-08-21T09:23:44;100768.56;;;32.77;48.40
59971;BME280;45825;45.434;9.116;2023-08-21T09:26:17;100765.66;;;32.71;47.19
59971;BME280;45825;45.434;9.116;2023-08-21T09:28:44;100768.97;;;32.48;47.68
59971;BME280;45825;45.434;9.116;2023-08-21T09:31:10;100766.44;;;32.79;47.33
59971;BME280;45825;45.434;9.116;2023-08-21T09:33:35;100768.88;;;32.94;47.25
59971;BME280;45825;45.434;9.116;2023-08-21T09:36:03;100758.59;;;32.96;47.06
59971;BME280;45825;45.434;9.116;2023-08-21T09:38:30;100763.47;;;32.87;48.05
59971;BME280;45825;45.434;9.116;2023-08-21T09:40:55;100756.31;;;32.93;47.86
59971;BME280;45825;45.434;9.116;2023-08-21T09:43:22;100753.66;;;33.11;47.97
59971;BME280;45825;45.434;9.116;2023-08-21T09:45:48;100758.19;;;33.17;47.82
59971;BME280;45825;45.434;9.116;2023-08-21T09:48:16;100752.59;;;33.12;46.99
59971;BME280;45825;45.434;9.116;2023-08-21T09:50:41;100740.31;;;33.22;46.80
59971;BME280;45825;45.434;9.116;2023-08-21T09:53:07;100744.59;;;33.36;46.73
59971;BME280;45825;45.434;9.116;2023-08-21T09:55:33;100745.06;;;33.33;46.75
59971;BME280;45825;45.434;9.116;2023-08-21T09:57:59;100741.19;;;33.41;47.08
59971;BME280;45825;45.434;9.116;2023-08-21T10:00:36;100737.94;;;33.51;47.27
59971;BME280;45825;45.434;9.116;2023-08-21T10:03:07;100726.75;;;33.59;45.75
59971;BME280;45825;45.434;9.116;2023-08-21T10:05:36;100728.72;;;33.70;45.79
59971;BME280;45825;45.434;9.116;2023-08-21T10:08:03;100728.91;;;33.88;45.72
59971;BME280;45825;45.434;9.116;2023-08-21T10:10:37;100725.81;;;34.03;44.76
59971;BME280;45825;45.434;9.116;2023-08-21T10:13:04;100730.28;;;33.97;44.89
59971;BME280;45825;45.434;9.116;2023-08-21T10:15:31;100729.50;;;33.90;45.27
59971;BME280;45825;45.434;9.116;2023-08-21T10:17:57;100724.38;;;34.00;45.03
59971;BME280;45825;45.434;9.116;2023-08-21T10:20:25;100722.88;;;34.47;44.05
59971;BME280;45825;45.434;9.116;2023-08-21T10:22:55;100718.28;;;34.17;43.60
59971;BME280;45825;45.434;9.116;2023-08-21T10:25:23;100717.38;;;34.35;43.17
59971;BME280;45825;45.434;9.116;2023-08-21T10:27:58;100714.63;;;34.89;42.87
59971;BME280;45825;45.434;9.116;2023-08-21T10:30:27;100708.38;;;35.24;42.25
59971;BME280;45825;45.434;9.116;2023-08-21T10:32:59;100710.88;;;35.14;40.31
59971;BME280;45825;45.434;9.116;2023-08-21T10:35:30;100711.56;;;35.09;41.18
59971;BME280;45825;45.434;9.116;2023-08-21T10:38:15;100698.91;;;35.56;40.83
59971;BME280;45825;45.434;9.116;2023-08-21T10:41:07;100698.53;;;35.64;39.76
59971;BME280;45825;45.434;9.116;2023-08-21T10:43:45;100696.50;;;35.72;39.47
59971;BME280;45825;45.434;9.116;2023-08-21T10:46:11;100684.72;;;35.71;39.36
59971;BME280;45825;45.434;9.116;2023-08-21T10:48:38;100690.09;;;35.95;38.66
59971;BME280;45825;45.434;9.116;2023-08-21T10:51:06;100686.69;;;35.88;38.86
59971;BME280;45825;45.434;9.116;2023-08-21T10:53:33;100688.09;;;35.61;37.80
59971;BME280;45825;45.434;9.116;2023-08-21T10:56:05;100688.09;;;35.90;36.17
59971;BME280;45825;45.434;9.116;2023-08-21T10:58:43;100681.53;;;36.20;36.71
59971;BME280;45825;45.434;9.116;2023-08-21T11:01:08;100678.56;;;36.22;37.69
59971;BME280;45825;45.434;9.116;2023-08-21T11:03:38;100686.88;;;36.79;36.60
59971;BME280;45825;45.434;9.116;2023-08-21T11:06:09;100678.91;;;36.43;37.43
59971;BME280;45825;45.434;9.116;2023-08-21T11:08:36;100686.22;;;36.54;37.16
59971;BME280;45825;45.434;9.116;2023-08-21T11:11:04;100675.91;;;36.44;37.07
59971;BME280;45825;45.434;9.116;2023-08-21T11:13:30;100684.59;;;37.10;36.23
59971;BME280;45825;45.434;9.116;2023-08-21T11:15:59;100674.34;;;37.22;35.71
59971;BME280;45825;45.434;9.116;2023-08-21T11:18:36;100677.84;;;36.61;35.55
59971;BME280;45825;45.434;9.116;2023-08-21T11:21:05;100672.03;;;36.40;36.62
59971;BME280;45825;45.434;9.116;2023-08-21T11:23:34;100669.06;;;36.76;35.60
59971;BME280;45825;45.434;9.116;2023-08-21T11:26:00;100662.38;;;36.20;36.12
59971;BME280;45825;45.434;9.116;2023-08-21T11:28:28;100663.28;;;36.43;35.99
59971;BME280;45825;45.434;9.116;2023-08-21T11:30:55;100661.63;;;36.76;36.21
59971;BME280;45825;45.434;9.116;2023-08-21T11:33:20;100663.06;;;36.79;35.42
59971;BME280;45825;45.434;9.116;2023-08-21T11:35:45;100663.41;;;36.48;35.60
59971;BME280;45825;45.434;9.116;2023-08-21T11:38:17;100656.38;;;37.09;35.09
59971;BME280;45825;45.434;9.116;2023-08-21T11:41:00;100655.13;;;37.00;34.89
59971;BME280;45825;45.434;9.116;2023-08-21T11:43:45;100654.38;;;37.27;34.88
59971;BME280;45825;45.434;9.116;2023-08-21T11:46:11;100656.13;;;36.94;34.27
59971;BME280;45825;45.434;9.116;2023-08-21T11:48:38;100655.94;;;37.00;34.16
59971;BME280;45825;45.434;9.116;2023-08-21T11:51:03;100649.69;;;36.83;34.50
59971;BME280;45825;45.434;9.116;2023-08-21T11:53:36;100654.44;;;36.70;34.44
59971;BME280;45825;45.434;9.116;2023-08-21T11:56:02;100646.25;;;36.93;34.38
59971;BME280;45825;45.434;9.116;2023-08-21T11:58:27;100643.63;;;37.20;33.70
59971;BME280;45825;45.434;9.116;2023-08-21T12:01:03;100629.00;;;37.59;33.98
59971;BME280;45825;45.434;9.116;2023-08-21T12:03:29;100642.16;;;37.35;33.38
59971;BME280;45825;45.434;9.116;2023-08-21T12:08:33;100637.13;;;36.87;33.75
59971;BME280;45825;45.434;9.116;2023-08-21T12:10:58;100637.13;;;36.87;34.87
59971;BME280;45825;45.434;9.116;2023-08-21T12:13:24;100628.22;;;36.97;34.50
59971;BME280;45825;45.434;9.116;2023-08-21T12:15:49;100624.88;;;37.34;33.13
59971;BME280;45825;45.434;9.116;2023-08-21T12:18:14;100628.38;;;37.52;32.98
59971;BME280;45825;45.434;9.116;2023-08-21T12:20:40;100624.56;;;37.80;32.83
59971;BME280;45825;45.434;9.116;2023-08-21T12:23:05;100625.22;;;36.98;32.54
59971;BME280;45825;45.434;9.116;2023-08-21T12:25:30;100617.31;;;36.80;33.44
59971;BME280;45825;45.434;9.116;2023-08-21T12:27:57;100619.47;;;37.39;32.92
59971;BME280;45825;45.434;9.116;2023-08-21T12:30:22;100610.97;;;37.41;32.28
59971;BME280;45825;45.434;9.116;2023-08-21T12:32:47;100612.94;;;37.45;31.75
59971;BME280;45825;45.434;9.116;2023-08-21T12:35:13;100620.75;;;37.09;32.21
59971;BME280;45825;45.434;9.116;2023-08-21T12:37:38;100602.97;;;36.95;32.63
59971;BME280;45825;45.434;9.116;2023-08-21T12:40:04;100614.31;;;36.81;32.58
59971;BME280;45825;45.434;9.116;2023-08-21T12:42:29;100611.59;;;37.03;31.31
59971;BME280;45825;45.434;9.116;2023-08-21T12:44:54;100612.75;;;37.08;30.99
59971;BME280;45825;45.434;9.116;2023-08-21T12:47:20;100599.81;;;37.25;30.52
59971;BME280;45825;45.434;9.116;2023-08-21T12:49:45;100597.91;;;37.26;29.79
59971;BME280;45825;45.434;9.116;2023-08-21T12:52:10;100591.19;;;37.16;29.18